This is the latest recevied weather packets stored in our database for station/object KJ7BRE-1. If no packets are shown the sender has not sent any weather packets the latest 10 day(s).
| Time | Temp. | Humidity | Pressure | Rain* | Wind** | Luminosity | Snow |
|---|---|---|---|---|---|---|---|
| 1787431789 | 21.11° C | 61% | 1017.3 hPa | 0 mm | - | - | - |
| 1787431488 | 21.11° C | 60% | 1017.3 hPa | 0 mm | - | - | - |
| 1787431187 | 21.11° C | 61% | 1017.3 hPa | 0 mm | - | - | - |
| 1787430886 | 20.56° C | 63% | 1017.3 hPa | 0 mm | - | - | - |
| 1787430584 | 20.56° C | 62% | 1017.3 hPa | 0 mm | - | - | - |
| 1787430283 | 20.56° C | 62% | 1017.3 hPa | 0 mm | - | - | - |
| 1787429982 | 20.56° C | 62% | 1017.3 hPa | 0 mm | - | - | - |
| 1787429681 | 20.56° C | 62% | 1017.3 hPa | 0 mm | - | - | - |
| 1787429380 | 19.44° C | 65% | 1017.3 hPa | 0 mm | - | - | - |
| 1787429079 | 19.44° C | 64% | 1017.3 hPa | 0 mm | - | - | - |
| 1787428777 | 19.44° C | 65% | 1017.3 hPa | 0 mm | - | - | - |
| 1787428476 | 20° C | 64% | 1017.6 hPa | 0 mm | - | - | - |
| 1787428175 | 20.56° C | 62% | 1017.3 hPa | 0 mm | - | - | - |
| 1787427874 | 20.56° C | 62% | 1017.3 hPa | 0 mm | - | - | - |
| 1787427573 | 20° C | 65% | 1017.6 hPa | 0 mm | - | - | - |
| 1787427271 | 20.56° C | 62% | 1017.6 hPa | 0 mm | - | - | - |
| 1787426970 | 20.56° C | 64% | 1017.6 hPa | 0 mm | - | - | - |
| 1787426669 | 20.56° C | 63% | 1017.6 hPa | 0 mm | - | - | - |
| 1787426368 | 20° C | 64% | 1017.6 hPa | 0 mm | - | - | - |
| 1787426066 | 18.89° C | 67% | 1017.6 hPa | 0 mm | - | - | - |
| 1787425765 | 18.89° C | 67% | 1017.6 hPa | 0 mm | - | - | - |
| 1787425464 | 18.89° C | 67% | 1017.3 hPa | 0 mm | - | - | - |
| 1787425163 | 18.89° C | 67% | 1017.6 hPa | 0 mm | - | - | - |
| 1787424259 | 18.33° C | 70% | 1017.6 hPa | 0 mm | - | - | - |
| 1787423958 | 17.78° C | 70% | 1017.6 hPa | 0 mm | - | - | - |
* Rain latest hour (hover to see other rain measurements)
** Current wind speed in m/s (hover to see current wind gust speed)